createdAt,value
2023-03-22T00:01:22.864Z,2.80
2023-03-22T00:03:57.865Z,3.57
2023-03-22T00:06:26.909Z,2.90
2023-03-22T00:08:56.016Z,3.17
2023-03-22T00:11:26.076Z,3.80
2023-03-22T00:14:16.730Z,3.17
2023-03-22T00:16:46.580Z,3.50
2023-03-22T00:19:18.078Z,2.87
2023-03-22T00:21:46.960Z,2.90
2023-03-22T00:24:15.635Z,3.83
2023-03-22T00:26:47.575Z,3.00
2023-03-22T00:29:16.292Z,3.80
2023-03-22T00:31:45.237Z,3.20
2023-03-22T00:34:14.342Z,2.70
2023-03-22T00:36:43.122Z,3.50
2023-03-22T00:39:12.108Z,4.30
2023-03-22T00:41:40.769Z,3.57
2023-03-22T00:44:10.716Z,3.30
2023-03-22T00:46:39.719Z,3.57
2023-03-22T00:49:08.313Z,2.83
2023-03-22T00:51:37.204Z,2.60
2023-03-22T00:54:07.278Z,2.97
2023-03-22T00:56:37.855Z,3.97
2023-03-22T00:59:06.584Z,3.13
2023-03-22T01:01:37.245Z,2.63
2023-03-22T01:04:06.395Z,3.00
2023-03-22T01:06:35.834Z,3.10
2023-03-22T01:09:05.189Z,3.07
2023-03-22T01:11:33.735Z,3.43
2023-03-22T01:14:02.665Z,3.67
2023-03-22T01:16:34.032Z,3.40
2023-03-22T01:19:04.307Z,3.77
2023-03-22T01:21:33.447Z,3.60
2023-03-22T01:24:02.089Z,3.60
2023-03-22T01:26:30.744Z,4.30
2023-03-22T01:28:59.802Z,4.53
2023-03-22T01:31:28.859Z,3.80
2023-03-22T01:33:57.441Z,2.90
2023-03-22T01:36:28.066Z,3.10
2023-03-22T01:38:56.927Z,2.90
2023-03-22T01:41:26.151Z,3.13
2023-03-22T01:44:12.642Z,3.60
2023-03-22T01:46:41.244Z,3.00
2023-03-22T01:49:12.964Z,2.73
2023-03-22T01:51:46.092Z,2.50
2023-03-22T01:54:19.582Z,3.17
2023-03-22T01:57:04.510Z,2.50
2023-03-22T01:59:33.415Z,4.50
2023-03-22T02:02:02.933Z,2.90
2023-03-22T02:04:34.680Z,2.90
2023-03-22T02:07:10.270Z,3.30
2023-03-22T02:09:41.706Z,3.23
2023-03-22T02:12:18.594Z,2.00
2023-03-22T02:14:57.587Z,2.50
2023-03-22T02:17:32.517Z,2.63
2023-03-22T02:20:33.433Z,2.33
2023-03-22T02:23:42.728Z,3.03
2023-03-22T02:26:47.294Z,2.80
2023-03-22T02:29:22.485Z,3.00
2023-03-22T02:32:05.890Z,3.70
2023-03-22T02:34:57.287Z,3.23
2023-03-22T02:37:41.943Z,3.23
2023-03-22T02:40:15.216Z,3.17
2023-03-22T02:42:51.807Z,2.70
2023-03-22T02:45:27.923Z,3.47
2023-03-22T02:48:00.994Z,3.60
2023-03-22T02:50:33.286Z,2.97
2023-03-22T02:53:06.022Z,3.17
2023-03-22T02:55:39.831Z,3.07
2023-03-22T02:58:12.801Z,2.70
2023-03-22T03:00:42.144Z,4.27
2023-03-22T03:03:15.277Z,2.83
2023-03-22T03:05:46.517Z,3.20
2023-03-22T03:08:17.429Z,3.37
2023-03-22T03:10:51.140Z,3.00
2023-03-22T03:13:20.804Z,2.90
2023-03-22T03:15:57.464Z,2.80
2023-03-22T03:18:48.008Z,2.83
2023-03-22T03:21:25.753Z,3.70
2023-03-22T03:24:00.591Z,3.20
2023-03-22T03:26:45.015Z,3.13
2023-03-22T03:29:23.033Z,3.77
2023-03-22T03:31:56.083Z,3.37
2023-03-22T03:34:27.644Z,3.80
2023-03-22T03:37:00.242Z,5.30
2023-03-22T03:39:34.792Z,8.60
2023-03-22T03:42:05.846Z,10.83
2023-03-22T03:44:36.090Z,8.60
2023-03-22T03:47:05.442Z,9.07
2023-03-22T03:49:34.344Z,9.10
2023-03-22T03:52:03.183Z,7.17
2023-03-22T03:54:31.636Z,9.07
2023-03-22T03:57:03.484Z,9.90
2023-03-22T03:59:34.156Z,8.67
2023-03-22T04:02:02.592Z,11.53
2023-03-22T04:04:31.310Z,11.50
2023-03-22T04:07:01.250Z,11.97
2023-03-22T04:09:31.724Z,12.43
2023-03-22T04:12:00.698Z,11.70
2023-03-22T04:14:29.332Z,12.30
2023-03-22T04:16:59.527Z,9.30
2023-03-22T04:19:27.977Z,7.00
2023-03-22T04:21:57.018Z,7.27
2023-03-22T04:24:25.637Z,7.90
2023-03-22T04:26:54.182Z,7.90
2023-03-22T04:29:24.755Z,7.70
2023-03-22T04:32:23.086Z,7.57
2023-03-22T04:34:52.131Z,6.60
2023-03-22T04:37:22.802Z,8.10
2023-03-22T04:39:51.726Z,8.13
2023-03-22T04:42:20.978Z,8.13
2023-03-22T04:44:49.764Z,7.43
2023-03-22T04:47:20.617Z,7.40
2023-03-22T04:49:52.542Z,6.80
2023-03-22T04:52:21.135Z,5.40
2023-03-22T04:54:49.718Z,4.77
2023-03-22T04:57:18.638Z,4.40
2023-03-22T04:59:47.302Z,4.07
2023-03-22T05:02:17.932Z,3.57
2023-03-22T05:04:48.305Z,3.90
2023-03-22T05:07:17.070Z,3.90
2023-03-22T05:09:45.637Z,4.10
2023-03-22T05:12:14.628Z,3.87
2023-03-22T05:14:44.053Z,3.70
2023-03-22T05:17:12.960Z,3.73
2023-03-22T05:19:41.431Z,3.50
2023-03-22T05:22:13.481Z,3.90
2023-03-22T05:24:44.849Z,3.33
2023-03-22T05:27:14.513Z,3.50
2023-03-22T05:29:45.336Z,3.00
2023-03-22T05:32:14.000Z,2.70
2023-03-22T05:34:45.714Z,3.50
2023-03-22T05:37:16.955Z,3.30
2023-03-22T05:39:45.504Z,3.50
2023-03-22T05:42:14.375Z,2.63
2023-03-22T05:44:42.843Z,4.03
2023-03-22T05:47:11.739Z,3.50
2023-03-22T05:49:40.319Z,3.30
2023-03-22T05:52:09.955Z,3.23
2023-03-22T05:54:42.584Z,2.40
2023-03-22T05:57:11.277Z,2.67
2023-03-22T05:59:40.147Z,2.50
2023-03-22T06:02:09.202Z,2.87
2023-03-22T06:04:38.342Z,2.73
2023-03-22T06:07:07.785Z,2.50
2023-03-22T06:09:36.560Z,2.03
2023-03-22T06:12:07.896Z,2.63
2023-03-22T06:14:36.629Z,3.50
2023-03-22T06:17:05.365Z,2.90
2023-03-22T06:19:37.090Z,2.90
2023-03-22T06:22:05.907Z,4.93
2023-03-22T06:24:34.701Z,4.17
2023-03-22T06:27:08.278Z,4.53
2023-03-22T06:29:38.118Z,4.70
2023-03-22T06:32:07.743Z,5.97
2023-03-22T06:34:36.390Z,5.73
2023-03-22T06:37:06.927Z,5.30
2023-03-22T06:39:38.027Z,4.40
2023-03-22T06:42:06.667Z,6.43
2023-03-22T06:44:35.563Z,5.47
2023-03-22T06:47:06.137Z,7.70
2023-03-22T06:49:35.175Z,10.13
2023-03-22T06:52:04.313Z,9.07
2023-03-22T06:54:32.945Z,10.63
2023-03-22T06:57:01.824Z,11.23
2023-03-22T06:59:30.874Z,11.80
2023-03-22T07:01:59.368Z,9.50
2023-03-22T07:04:29.509Z,9.60
2023-03-22T07:06:58.382Z,8.80
2023-03-22T07:09:27.606Z,10.27
2023-03-22T07:12:00.314Z,9.07
2023-03-22T07:14:30.428Z,9.57
2023-03-22T07:16:59.254Z,8.17
2023-03-22T07:19:32.810Z,7.80
2023-03-22T07:22:01.765Z,7.00
2023-03-22T07:24:30.535Z,8.23
2023-03-22T07:27:05.247Z,6.90
2023-03-22T07:29:34.579Z,7.97
2023-03-22T07:32:03.057Z,7.33
2023-03-22T07:34:33.499Z,6.73
2023-03-22T07:37:03.132Z,7.97
2023-03-22T07:39:31.927Z,8.70
2023-03-22T07:42:00.564Z,7.10
2023-03-22T07:44:32.174Z,6.33
2023-03-22T07:47:00.972Z,7.53
2023-03-22T07:50:32.083Z,7.13
2023-03-22T07:53:02.002Z,7.03
2023-03-22T07:55:35.711Z,6.37
2023-03-22T07:58:04.209Z,6.83
2023-03-22T08:00:32.696Z,6.77
2023-03-22T08:03:04.116Z,7.00
2023-03-22T08:05:32.416Z,8.17
2023-03-22T08:08:03.666Z,6.70
2023-03-22T08:10:35.389Z,8.10
2023-03-22T08:13:04.225Z,7.17
2023-03-22T08:15:37.660Z,7.30
2023-03-22T08:18:08.953Z,9.33
2023-03-22T08:20:38.573Z,8.47
2023-03-22T08:23:26.338Z,10.87
2023-03-22T08:26:00.704Z,10.97
2023-03-22T08:28:31.921Z,12.40
2023-03-22T08:31:00.527Z,11.00
2023-03-22T08:33:31.976Z,10.53
2023-03-22T08:36:09.647Z,11.67
2023-03-22T08:38:42.710Z,10.67
2023-03-22T08:41:11.870Z,11.27
2023-03-22T08:43:40.546Z,11.93
2023-03-22T08:46:09.463Z,12.60
2023-03-22T08:48:38.722Z,9.57
2023-03-22T08:51:08.079Z,12.57
2023-03-22T08:53:37.128Z,12.60
2023-03-22T08:56:08.887Z,11.30
2023-03-22T08:58:41.150Z,11.43
2023-03-22T09:01:12.713Z,9.47
2023-03-22T09:03:46.727Z,11.00
2023-03-22T09:06:19.119Z,11.73
2023-03-22T09:08:48.928Z,8.83
2023-03-22T09:11:19.243Z,8.27
2023-03-22T09:13:48.693Z,9.33
2023-03-22T09:16:20.984Z,9.57
2023-03-22T09:18:49.477Z,10.50
2023-03-22T09:21:17.822Z,9.83
2023-03-22T09:23:48.017Z,10.13
2023-03-22T09:26:18.655Z,10.03
2023-03-22T09:28:47.289Z,8.73
2023-03-22T09:31:18.532Z,9.43
2023-03-22T09:33:48.469Z,10.93
2023-03-22T09:36:17.480Z,9.30
2023-03-22T09:38:47.217Z,9.10
2023-03-22T09:41:20.003Z,9.73
2023-03-22T09:43:54.658Z,9.50
2023-03-22T09:46:29.213Z,6.57
2023-03-22T09:49:15.362Z,8.40
2023-03-22T09:51:47.849Z,8.20
2023-03-22T09:54:19.941Z,7.77
2023-03-22T09:56:52.490Z,7.17
2023-03-22T09:59:24.954Z,6.20
2023-03-22T10:01:58.565Z,8.80
2023-03-22T10:04:45.675Z,7.80
2023-03-22T10:07:25.740Z,9.50
2023-03-22T10:10:16.345Z,8.83
2023-03-22T10:12:54.769Z,6.50
2023-03-22T10:15:29.833Z,5.30
2023-03-22T10:18:01.071Z,6.80
2023-03-22T10:20:37.170Z,7.47
2023-03-22T10:23:07.880Z,6.73
2023-03-22T10:25:39.025Z,8.10
2023-03-22T10:28:17.004Z,6.17
2023-03-22T10:30:51.115Z,5.20
2023-03-22T10:33:25.478Z,7.00
2023-03-22T10:35:56.214Z,7.40
2023-03-22T10:38:27.452Z,6.57
2023-03-22T10:40:59.230Z,5.07
2023-03-22T10:43:34.084Z,6.17
2023-03-22T10:46:05.326Z,5.87
2023-03-22T10:48:35.558Z,4.47
2023-03-22T10:51:04.768Z,4.70
2023-03-22T10:53:39.138Z,5.57
2023-03-22T10:56:13.172Z,4.30
2023-03-22T10:58:45.027Z,4.67
2023-03-22T11:01:15.394Z,4.40
2023-03-22T11:03:45.756Z,3.90
2023-03-22T11:06:15.970Z,4.40
2023-03-22T11:08:49.123Z,4.53
2023-03-22T11:11:21.304Z,5.13
2023-03-22T11:14:00.196Z,4.03
2023-03-22T11:16:31.297Z,5.30
2023-03-22T11:19:02.952Z,6.10
2023-03-22T11:21:33.671Z,5.20
2023-03-22T11:24:06.362Z,3.77
2023-03-22T11:26:41.797Z,3.90
2023-03-22T11:29:19.499Z,4.03
2023-03-22T11:31:56.119Z,4.10
2023-03-22T11:34:27.956Z,4.20
2023-03-22T11:36:58.125Z,3.80
2023-03-22T11:39:29.522Z,4.47
2023-03-22T11:42:01.910Z,4.83
2023-03-22T11:44:34.807Z,5.20
2023-03-22T11:47:04.681Z,4.20
2023-03-22T11:49:40.119Z,3.77
2023-03-22T11:52:11.406Z,3.90
2023-03-22T11:54:47.212Z,4.40
2023-03-22T11:57:23.126Z,4.50
2023-03-22T11:59:57.428Z,4.87
2023-03-22T12:02:34.174Z,4.50
2023-03-22T12:05:10.533Z,4.40
2023-03-22T12:07:40.289Z,4.83
2023-03-22T12:10:16.769Z,3.80
2023-03-22T12:12:48.497Z,4.50
2023-03-22T12:15:21.638Z,4.10
2023-03-22T12:17:59.009Z,3.80
2023-03-22T12:20:36.857Z,3.30
2023-03-22T12:23:14.436Z,3.73
2023-03-22T12:25:45.027Z,3.93
2023-03-22T12:28:17.405Z,4.20
2023-03-22T12:30:49.808Z,4.17
2023-03-22T12:33:22.399Z,4.30
2023-03-22T12:35:53.151Z,3.27
2023-03-22T12:38:29.848Z,2.90
2023-03-22T12:41:00.349Z,3.90
2023-03-22T12:43:48.782Z,3.17
2023-03-22T12:46:25.841Z,3.20
2023-03-22T12:48:57.462Z,3.10
2023-03-22T12:51:26.696Z,2.90
2023-03-22T12:53:56.971Z,2.80
2023-03-22T12:56:28.473Z,2.77
2023-03-22T12:59:31.580Z,1.83
2023-03-22T13:02:05.744Z,3.20
2023-03-22T13:04:51.147Z,3.00
2023-03-22T13:07:41.337Z,2.20
2023-03-22T13:10:48.850Z,2.03
2023-03-22T13:13:20.935Z,2.00
2023-03-22T13:16:01.427Z,2.40
2023-03-22T13:18:39.321Z,1.40
2023-03-22T13:21:16.905Z,2.33
2023-03-22T13:23:57.207Z,1.60
2023-03-22T13:26:37.831Z,2.27
2023-03-22T13:29:12.666Z,1.90
2023-03-22T13:31:44.762Z,1.70
2023-03-22T13:34:19.297Z,2.40
2023-03-22T13:36:54.036Z,1.70
2023-03-22T13:39:25.506Z,2.50
2023-03-22T13:42:18.221Z,2.20
2023-03-22T13:44:47.576Z,1.70
2023-03-22T13:47:37.676Z,1.80
2023-03-22T13:50:14.275Z,1.90
2023-03-22T13:52:44.755Z,2.33
2023-03-22T13:55:38.013Z,1.43
2023-03-22T13:58:11.661Z,2.20
2023-03-22T14:00:44.863Z,1.90
2023-03-22T14:03:18.091Z,1.60
2023-03-22T14:05:48.567Z,1.93
2023-03-22T14:08:23.419Z,1.53
2023-03-22T14:10:54.692Z,1.80
2023-03-22T14:13:32.628Z,1.73
2023-03-22T14:16:06.040Z,1.63
2023-03-22T14:18:36.596Z,1.63
2023-03-22T14:21:08.553Z,1.83
